createdAt,value
2022-09-12T00:00:01.875Z,9.14
2022-09-12T00:15:02.252Z,8.97
2022-09-12T00:30:02.396Z,8.52
2022-09-12T00:45:01.632Z,9.88
2022-09-12T01:00:01.926Z,9.89
2022-09-12T01:15:02.890Z,9.72
2022-09-12T01:30:02.842Z,9.69
2022-09-12T01:45:01.990Z,9.35
2022-09-12T02:00:02.500Z,9.55
2022-09-12T02:15:01.804Z,9.53
2022-09-12T02:30:02.869Z,9.43
2022-09-12T02:45:02.273Z,9.8
2022-09-12T03:00:01.740Z,9.73
2022-09-12T03:15:01.814Z,7.98
2022-09-12T03:30:01.916Z,7.9
2022-09-12T03:45:02.031Z,6.96
2022-09-12T04:00:02.280Z,6.98
2022-09-12T04:15:02.435Z,7.17
2022-09-12T04:30:02.574Z,6.59
2022-09-12T04:45:01.376Z,6.82
2022-09-12T05:00:05.202Z,6.48
2022-09-12T05:15:01.528Z,6.75
2022-09-12T05:30:01.799Z,6.48
2022-09-12T05:45:02.030Z,7.36
2022-09-12T06:00:02.296Z,8.32
2022-09-12T06:15:01.891Z,9
2022-09-12T06:30:02.182Z,9.64
2022-09-12T06:45:01.830Z,10.3
2022-09-12T07:00:02.063Z,10.85
2022-09-12T07:15:02.143Z,11.31
2022-09-12T07:30:02.330Z,12.18
2022-09-12T07:45:01.479Z,12.85
2022-09-12T08:00:02.669Z,13.36
2022-09-12T08:15:02.838Z,14.17
2022-09-12T08:30:02.955Z,15.14
2022-09-12T08:45:01.479Z,16.19
2022-09-12T09:00:01.743Z,16.86
2022-09-12T09:15:01.754Z,17.37
2022-09-12T09:30:02.037Z,18.29
2022-09-12T09:45:02.237Z,18.97
2022-09-12T10:00:02.225Z,19.43
2022-09-12T10:15:01.957Z,20.3
2022-09-12T10:30:02.239Z,21.48
2022-09-12T10:45:01.457Z,28.31
2022-09-12T11:00:01.764Z,98.15
2022-09-12T11:15:01.868Z,98.15
2022-09-12T11:30:02.887Z,98.15
2022-09-12T11:45:02.034Z,98.15
2022-09-12T12:00:02.134Z,98.15
2022-09-12T12:15:02.887Z,98.15
2022-09-12T12:30:02.335Z,98.15
2022-09-12T12:45:02.648Z,98.15
2022-09-12T13:00:02.990Z,98.15
2022-09-12T13:15:03.036Z,98.15
2022-09-12T13:30:02.825Z,98.15
2022-09-12T13:45:01.605Z,98.15
2022-09-12T14:00:01.635Z,98.15
2022-09-12T14:15:02.010Z,98.15
2022-09-12T14:30:02.837Z,98.15
2022-09-12T14:45:01.500Z,98.15
2022-09-12T15:00:01.892Z,98.15
2022-09-12T15:15:01.615Z,98.15
2022-09-12T15:30:02.696Z,98.15
2022-09-12T15:45:02.871Z,98.15
2022-09-12T16:00:01.342Z,98.15
2022-09-12T16:15:02.495Z,98.15
2022-09-12T16:30:02.139Z,83.2
2022-09-12T16:45:02.389Z,39.54
2022-09-12T17:00:01.658Z,27.37
2022-09-12T17:15:02.497Z,18.79
2022-09-12T17:30:01.908Z,16.2
2022-09-12T17:45:02.412Z,15.43
2022-09-12T18:00:01.338Z,15.18
2022-09-12T18:15:01.856Z,14.56
2022-09-12T18:30:20.398Z,14.15
2022-09-12T18:45:02.283Z,13.57
2022-09-12T19:00:02.468Z,13.7
2022-09-12T19:15:02.540Z,12.84
2022-09-12T19:30:01.431Z,12.79
2022-09-12T19:45:01.690Z,12.52
2022-09-12T20:00:01.921Z,12.7
2022-09-12T20:15:02.730Z,20.5
2022-09-12T20:30:01.561Z,13.6
2022-09-12T20:45:01.797Z,14.56
2022-09-12T21:00:02.051Z,12.22
2022-09-12T21:15:01.931Z,11.2
2022-09-12T21:30:01.949Z,10.96
2022-09-12T21:45:02.110Z,10.56
2022-09-12T22:00:02.343Z,13.68
2022-09-12T22:15:12.981Z,10.97
2022-09-12T22:30:02.679Z,10.6
2022-09-12T22:45:02.804Z,10.22
2022-09-12T23:00:01.680Z,9.76
2022-09-12T23:15:01.406Z,9.38
2022-09-12T23:30:01.694Z,9.42
2022-09-12T23:45:01.909Z,8.96
